sensor_id;sensor_type;location;lat;lon;timestamp;pressure;altitude;pressure_sealevel;temperature;humidity
31092;BME280;67728;53.122;12.776;2023-07-29T00:00:55;99943.28;;;16.56;100.00
31092;BME280;67728;53.122;12.776;2023-07-29T00:02:27;99950.97;;;16.59;100.00
31092;BME280;67728;53.122;12.776;2023-07-29T00:03:59;99960.88;;;16.70;100.00
31092;BME280;67728;53.122;12.776;2023-07-29T00:05:31;99951.84;;;16.76;100.00
31092;BME280;67728;53.122;12.776;2023-07-29T00:07:01;99946.53;;;16.77;100.00
31092;BME280;67728;53.122;12.776;2023-07-29T00:08:34;99946.47;;;16.79;100.00
31092;BME280;67728;53.122;12.776;2023-07-29T00:10:06;99948.38;;;16.75;100.00
31092;BME280;67728;53.122;12.776;2023-07-29T00:11:37;99938.66;;;16.77;100.00
31092;BME280;67728;53.122;12.776;2023-07-29T00:13:08;99943.31;;;16.72;100.00
31092;BME280;67728;53.122;12.776;2023-07-29T00:14:38;99939.03;;;16.54;100.00
31092;BME280;67728;53.122;12.776;2023-07-29T00:16:10;99942.41;;;16.56;100.00
31092;BME280;67728;53.122;12.776;2023-07-29T00:17:41;99939.72;;;16.57;100.00
31092;BME280;67728;53.122;12.776;2023-07-29T00:19:12;99941.56;;;16.55;100.00
31092;BME280;67728;53.122;12.776;2023-07-29T00:20:43;99947.41;;;16.60;100.00
31092;BME280;67728;53.122;12.776;2023-07-29T00:22:13;99948.25;;;16.61;100.00
31092;BME280;67728;53.122;12.776;2023-07-29T00:23:46;99946.06;;;16.52;100.00
31092;BME280;67728;53.122;12.776;2023-07-29T00:25:16;99953.13;;;16.34;100.00
31092;BME280;67728;53.122;12.776;2023-07-29T00:26:48;99950.13;;;16.25;100.00
31092;BME280;67728;53.122;12.776;2023-07-29T00:28:18;99941.88;;;16.32;100.00
31092;BME280;67728;53.122;12.776;2023-07-29T00:29:50;99947.34;;;16.28;100.00
31092;BME280;67728;53.122;12.776;2023-07-29T00:31:20;99940.34;;;16.28;100.00
31092;BME280;67728;53.122;12.776;2023-07-29T00:32:52;99949.97;;;16.28;100.00
31092;BME280;67728;53.122;12.776;2023-07-29T00:34:23;99948.75;;;16.35;100.00
31092;BME280;67728;53.122;12.776;2023-07-29T00:35:53;99945.66;;;16.27;100.00
31092;BME280;67728;53.122;12.776;2023-07-29T00:37:25;99943.97;;;16.26;100.00
31092;BME280;67728;53.122;12.776;2023-07-29T00:38:57;99946.44;;;16.29;100.00
31092;BME280;67728;53.122;12.776;2023-07-29T00:40:29;99939.34;;;16.31;100.00
31092;BME280;67728;53.122;12.776;2023-07-29T00:41:59;99942.28;;;16.25;100.00
31092;BME280;67728;53.122;12.776;2023-07-29T00:43:31;99933.66;;;16.23;100.00
31092;BME280;67728;53.122;12.776;2023-07-29T00:45:01;99932.72;;;16.24;100.00
31092;BME280;67728;53.122;12.776;2023-07-29T00:46:33;99929.81;;;16.30;100.00
31092;BME280;67728;53.122;12.776;2023-07-29T00:48:04;99930.56;;;16.14;100.00
31092;BME280;67728;53.122;12.776;2023-07-29T00:49:36;99930.56;;;16.14;100.00
31092;BME280;67728;53.122;12.776;2023-07-29T00:51:06;99933.75;;;16.21;100.00
31092;BME280;67728;53.122;12.776;2023-07-29T00:52:37;99931.63;;;16.28;100.00
31092;BME280;67728;53.122;12.776;2023-07-29T00:54:09;99927.19;;;16.30;100.00
31092;BME280;67728;53.122;12.776;2023-07-29T00:55:41;99923.13;;;16.24;100.00
31092;BME280;67728;53.122;12.776;2023-07-29T00:57:12;99919.19;;;16.15;100.00
31092;BME280;67728;53.122;12.776;2023-07-29T00:58:44;99922.97;;;16.10;100.00
31092;BME280;67728;53.122;12.776;2023-07-29T01:00:16;99921.06;;;16.13;100.00
31092;BME280;67728;53.122;12.776;2023-07-29T01:01:46;99914.25;;;16.09;100.00
31092;BME280;67728;53.122;12.776;2023-07-29T01:03:18;99914.66;;;16.02;100.00
31092;BME280;67728;53.122;12.776;2023-07-29T01:04:51;99916.66;;;15.97;100.00
31092;BME280;67728;53.122;12.776;2023-07-29T01:06:23;99910.97;;;15.89;100.00
31092;BME280;67728;53.122;12.776;2023-07-29T01:07:59;99909.19;;;15.89;100.00
31092;BME280;67728;53.122;12.776;2023-07-29T01:09:40;99912.50;;;15.93;100.00
31092;BME280;67728;53.122;12.776;2023-07-29T01:11:15;99912.13;;;15.83;100.00
31092;BME280;67728;53.122;12.776;2023-07-29T01:12:49;99913.78;;;15.84;100.00
31092;BME280;67728;53.122;12.776;2023-07-29T01:14:24;99915.09;;;15.93;100.00
31092;BME280;67728;53.122;12.776;2023-07-29T01:15:58;99919.94;;;16.00;100.00
31092;BME280;67728;53.122;12.776;2023-07-29T01:17:32;99917.88;;;16.07;100.00
31092;BME280;67728;53.122;12.776;2023-07-29T01:19:04;99919.59;;;16.08;100.00
31092;BME280;67728;53.122;12.776;2023-07-29T01:20:37;99919.88;;;16.02;100.00
31092;BME280;67728;53.122;12.776;2023-07-29T01:22:09;99915.50;;;16.02;100.00
31092;BME280;67728;53.122;12.776;2023-07-29T01:23:42;99919.44;;;15.94;100.00
31092;BME280;67728;53.122;12.776;2023-07-29T01:25:13;99922.88;;;15.77;100.00
31092;BME280;67728;53.122;12.776;2023-07-29T01:26:45;99915.31;;;15.71;100.00
31092;BME280;67728;53.122;12.776;2023-07-29T01:28:15;99920.34;;;15.76;100.00
31092;BME280;67728;53.122;12.776;2023-07-29T01:29:47;99913.19;;;15.62;100.00
31092;BME280;67728;53.122;12.776;2023-07-29T01:31:19;99911.25;;;15.66;100.00
31092;BME280;67728;53.122;12.776;2023-07-29T01:32:54;99913.25;;;15.61;100.00
31092;BME280;67728;53.122;12.776;2023-07-29T01:34:29;99911.72;;;15.38;100.00
31092;BME280;67728;53.122;12.776;2023-07-29T01:36:03;99909.94;;;15.38;100.00
31092;BME280;67728;53.122;12.776;2023-07-29T01:37:37;99913.34;;;15.40;100.00
31092;BME280;67728;53.122;12.776;2023-07-29T01:39:10;99916.47;;;15.48;100.00
31092;BME280;67728;53.122;12.776;2023-07-29T01:40:42;99915.94;;;15.59;100.00
31092;BME280;67728;53.122;12.776;2023-07-29T01:42:13;99925.16;;;15.66;100.00
31092;BME280;67728;53.122;12.776;2023-07-29T01:43:45;99917.59;;;15.60;100.00
31092;BME280;67728;53.122;12.776;2023-07-29T01:45:16;99918.59;;;15.57;100.00
31092;BME280;67728;53.122;12.776;2023-07-29T01:46:48;99920.16;;;15.62;100.00
31092;BME280;67728;53.122;12.776;2023-07-29T01:48:20;99927.63;;;15.69;100.00
31092;BME280;67728;53.122;12.776;2023-07-29T01:49:51;99926.50;;;15.75;100.00
31092;BME280;67728;53.122;12.776;2023-07-29T01:51:22;99924.63;;;15.77;100.00
31092;BME280;67728;53.122;12.776;2023-07-29T01:52:53;99916.78;;;15.77;100.00
31092;BME280;67728;53.122;12.776;2023-07-29T01:54:25;99918.41;;;15.79;100.00
31092;BME280;67728;53.122;12.776;2023-07-29T01:55:56;99922.44;;;15.86;100.00
31092;BME280;67728;53.122;12.776;2023-07-29T01:57:28;99922.19;;;15.91;100.00
31092;BME280;67728;53.122;12.776;2023-07-29T01:58:58;99930.66;;;15.96;100.00
31092;BME280;67728;53.122;12.776;2023-07-29T02:00:29;99921.34;;;15.90;100.00
31092;BME280;67728;53.122;12.776;2023-07-29T02:02:01;99923.91;;;15.92;100.00
31092;BME280;67728;53.122;12.776;2023-07-29T02:03:31;99923.56;;;15.98;100.00
31092;BME280;67728;53.122;12.776;2023-07-29T02:05:03;99922.25;;;16.06;100.00
31092;BME280;67728;53.122;12.776;2023-07-29T02:06:33;99917.03;;;16.06;100.00
31092;BME280;67728;53.122;12.776;2023-07-29T02:08:05;99927.44;;;16.08;100.00
31092;BME280;67728;53.122;12.776;2023-07-29T02:09:37;99923.81;;;16.10;100.00
31092;BME280;67728;53.122;12.776;2023-07-29T02:11:08;99935.03;;;16.12;100.00
31092;BME280;67728;53.122;12.776;2023-07-29T02:12:39;99943.59;;;16.16;100.00
31092;BME280;67728;53.122;12.776;2023-07-29T02:14:10;99936.59;;;16.17;100.00
31092;BME280;67728;53.122;12.776;2023-07-29T02:15:41;99939.97;;;16.19;100.00
31092;BME280;67728;53.122;12.776;2023-07-29T02:17:12;99939.88;;;16.20;100.00
31092;BME280;67728;53.122;12.776;2023-07-29T02:18:43;99943.25;;;16.22;100.00
31092;BME280;67728;53.122;12.776;2023-07-29T02:20:13;99950.19;;;16.23;100.00
31092;BME280;67728;53.122;12.776;2023-07-29T02:21:45;99945.88;;;16.22;100.00
31092;BME280;67728;53.122;12.776;2023-07-29T02:23:16;99947.53;;;16.25;100.00
31092;BME280;67728;53.122;12.776;2023-07-29T02:24:48;99951.75;;;16.27;100.00
31092;BME280;67728;53.122;12.776;2023-07-29T02:26:20;99943.09;;;16.25;100.00
31092;BME280;67728;53.122;12.776;2023-07-29T02:27:50;99949.03;;;16.29;100.00
31092;BME280;67728;53.122;12.776;2023-07-29T02:29:21;99945.41;;;16.31;100.00
31092;BME280;67728;53.122;12.776;2023-07-29T02:32:38;99958.09;;;16.39;100.00
31092;BME280;67728;53.122;12.776;2023-07-29T02:34:09;99955.19;;;16.45;100.00
31092;BME280;67728;53.122;12.776;2023-07-29T02:35:40;99960.09;;;16.51;100.00
31092;BME280;67728;53.122;12.776;2023-07-29T02:37:10;99955.59;;;16.54;100.00
31092;BME280;67728;53.122;12.776;2023-07-29T02:38:42;99954.41;;;16.60;100.00
31092;BME280;67728;53.122;12.776;2023-07-29T02:40:14;99952.44;;;16.65;100.00
31092;BME280;67728;53.122;12.776;2023-07-29T02:41:45;99946.94;;;16.69;100.00
31092;BME280;67728;53.122;12.776;2023-07-29T02:43:16;99954.63;;;16.72;100.00
31092;BME280;67728;53.122;12.776;2023-07-29T02:44:47;99935.03;;;16.80;100.00
31092;BME280;67728;53.122;12.776;2023-07-29T02:46:18;99936.66;;;16.82;100.00
31092;BME280;67728;53.122;12.776;2023-07-29T02:47:49;99947.28;;;16.79;100.00
31092;BME280;67728;53.122;12.776;2023-07-29T02:49:19;99943.84;;;16.79;100.00
31092;BME280;67728;53.122;12.776;2023-07-29T02:50:51;99925.94;;;16.87;100.00
31092;BME280;67728;53.122;12.776;2023-07-29T02:52:21;99935.47;;;16.88;100.00
31092;BME280;67728;53.122;12.776;2023-07-29T02:53:53;99937.25;;;16.87;100.00
31092;BME280;67728;53.122;12.776;2023-07-29T02:55:24;99938.19;;;16.86;100.00
31092;BME280;67728;53.122;12.776;2023-07-29T02:56:56;99935.78;;;16.82;100.00
31092;BME280;67728;53.122;12.776;2023-07-29T02:58:26;99937.59;;;16.81;100.00
31092;BME280;67728;53.122;12.776;2023-07-29T02:59:58;99933.53;;;16.76;100.00
31092;BME280;67728;53.122;12.776;2023-07-29T03:01:29;99935.75;;;16.66;100.00
31092;BME280;67728;53.122;12.776;2023-07-29T03:03:00;99936.72;;;16.65;100.00
31092;BME280;67728;53.122;12.776;2023-07-29T03:04:31;99944.47;;;16.66;100.00
31092;BME280;67728;53.122;12.776;2023-07-29T03:06:02;99948.84;;;16.66;100.00
31092;BME280;67728;53.122;12.776;2023-07-29T03:07:34;99942.72;;;16.67;100.00
31092;BME280;67728;53.122;12.776;2023-07-29T03:09:04;99951.91;;;16.74;100.00
31092;BME280;67728;53.122;12.776;2023-07-29T03:10:37;99952.63;;;16.78;100.00
31092;BME280;67728;53.122;12.776;2023-07-29T03:12:08;99942.91;;;16.80;100.00
31092;BME280;67728;53.122;12.776;2023-07-29T03:13:39;99943.91;;;16.77;100.00
31092;BME280;67728;53.122;12.776;2023-07-29T03:15:10;99946.38;;;16.80;100.00
31092;BME280;67728;53.122;12.776;2023-07-29T03:16:41;99941.03;;;16.82;100.00
31092;BME280;67728;53.122;12.776;2023-07-29T03:18:12;99949.53;;;16.87;100.00
31092;BME280;67728;53.122;12.776;2023-07-29T03:19:43;99951.94;;;16.90;100.00
31092;BME280;67728;53.122;12.776;2023-07-29T03:21:14;99952.78;;;16.90;100.00
31092;BME280;67728;53.122;12.776;2023-07-29T03:22:45;99949.25;;;16.91;100.00
31092;BME280;67728;53.122;12.776;2023-07-29T03:24:16;99950.97;;;16.92;100.00
31092;BME280;67728;53.122;12.776;2023-07-29T03:25:49;99947.41;;;16.93;100.00
31092;BME280;67728;53.122;12.776;2023-07-29T03:27:21;99943.94;;;16.93;100.00
31092;BME280;67728;53.122;12.776;2023-07-29T03:28:51;99938.78;;;16.91;100.00
31092;BME280;67728;53.122;12.776;2023-07-29T03:30:23;99931.78;;;16.92;100.00
31092;BME280;67728;53.122;12.776;2023-07-29T03:31:53;99932.44;;;16.95;100.00
31092;BME280;67728;53.122;12.776;2023-07-29T03:33:25;99929.06;;;16.93;100.00
31092;BME280;67728;53.122;12.776;2023-07-29T03:34:56;99920.44;;;16.91;100.00
31092;BME280;67728;53.122;12.776;2023-07-29T03:36:27;99914.28;;;16.92;100.00
31092;BME280;67728;53.122;12.776;2023-07-29T03:37:59;99916.97;;;16.91;100.00
31092;BME280;67728;53.122;12.776;2023-07-29T03:39:30;99918.69;;;16.92;100.00
31092;BME280;67728;53.122;12.776;2023-07-29T03:41:02;99912.44;;;16.94;100.00
31092;BME280;67728;53.122;12.776;2023-07-29T03:42:33;99909.06;;;16.92;100.00
31092;BME280;67728;53.122;12.776;2023-07-29T03:44:04;99906.59;;;16.89;100.00
31092;BME280;67728;53.122;12.776;2023-07-29T03:45:35;99898.91;;;16.86;100.00
31092;BME280;67728;53.122;12.776;2023-07-29T03:47:06;99905.81;;;16.87;100.00
31092;BME280;67728;53.122;12.776;2023-07-29T03:48:38;99905.06;;;16.85;100.00
31092;BME280;67728;53.122;12.776;2023-07-29T03:50:08;99903.38;;;16.84;100.00
31092;BME280;67728;53.122;12.776;2023-07-29T03:51:40;99898.72;;;16.89;100.00
31092;BME280;67728;53.122;12.776;2023-07-29T03:53:10;99894.16;;;16.93;100.00
31092;BME280;67728;53.122;12.776;2023-07-29T03:54:42;99895.75;;;16.95;100.00
31092;BME280;67728;53.122;12.776;2023-07-29T03:56:13;99897.38;;;16.98;100.00
31092;BME280;67728;53.122;12.776;2023-07-29T03:57:45;99899.97;;;16.98;100.00
31092;BME280;67728;53.122;12.776;2023-07-29T03:59:16;99899.66;;;16.88;100.00
31092;BME280;67728;53.122;12.776;2023-07-29T04:00:48;99901.50;;;16.86;100.00
31092;BME280;67728;53.122;12.776;2023-07-29T04:02:18;99901.34;;;16.89;100.00
31092;BME280;67728;53.122;12.776;2023-07-29T04:03:50;99897.19;;;16.85;100.00
31092;BME280;67728;53.122;12.776;2023-07-29T04:05:22;99896.28;;;16.86;100.00
31092;BME280;67728;53.122;12.776;2023-07-29T04:06:53;99895.53;;;16.84;100.00
31092;BME280;67728;53.122;12.776;2023-07-29T04:08:24;99898.91;;;16.86;100.00
31092;BME280;67728;53.122;12.776;2023-07-29T04:09:55;99903.88;;;16.91;100.00
31092;BME280;67728;53.122;12.776;2023-07-29T04:11:28;99895.44;;;16.86;100.00
31092;BME280;67728;53.122;12.776;2023-07-29T04:12:58;99899.97;;;16.82;100.00
31092;BME280;67728;53.122;12.776;2023-07-29T04:14:30;99894.84;;;16.81;100.00
31092;BME280;67728;53.122;12.776;2023-07-29T04:16:00;99893.81;;;16.83;100.00
31092;BME280;67728;53.122;12.776;2023-07-29T04:17:32;99901.41;;;16.88;100.00
31092;BME280;67728;53.122;12.776;2023-07-29T04:19:03;99899.06;;;16.83;100.00
31092;BME280;67728;53.122;12.776;2023-07-29T04:20:34;99893.22;;;16.78;100.00
31092;BME280;67728;53.122;12.776;2023-07-29T04:22:05;99894.06;;;16.79;100.00
31092;BME280;67728;53.122;12.776;2023-07-29T04:23:36;99891.25;;;16.82;100.00
31092;BME280;67728;53.122;12.776;2023-07-29T04:25:07;99892.44;;;16.76;100.00
31092;BME280;67728;53.122;12.776;2023-07-29T04:26:40;99879.59;;;16.71;100.00
31092;BME280;67728;53.122;12.776;2023-07-29T04:28:10;99879.75;;;16.68;100.00
31092;BME280;67728;53.122;12.776;2023-07-29T04:29:42;99878.91;;;16.68;100.00
31092;BME280;67728;53.122;12.776;2023-07-29T04:31:12;99882.97;;;16.73;100.00
31092;BME280;67728;53.122;12.776;2023-07-29T04:32:44;99886.44;;;16.74;100.00
31092;BME280;67728;53.122;12.776;2023-07-29T04:34:15;99884.00;;;16.71;100.00
31092;BME280;67728;53.122;12.776;2023-07-29T04:35:46;99881.72;;;16.65;100.00
31092;BME280;67728;53.122;12.776;2023-07-29T04:37:16;99880.94;;;16.63;100.00
31092;BME280;67728;53.122;12.776;2023-07-29T04:38:48;99873.94;;;16.63;100.00
31092;BME280;67728;53.122;12.776;2023-07-29T04:40:19;99886.28;;;16.61;100.00
31092;BME280;67728;53.122;12.776;2023-07-29T04:41:51;99884.34;;;16.65;100.00
31092;BME280;67728;53.122;12.776;2023-07-29T04:43:23;99875.53;;;16.66;100.00
31092;BME280;67728;53.122;12.776;2023-07-29T04:44:56;99874.94;;;16.61;100.00
31092;BME280;67728;53.122;12.776;2023-07-29T04:46:27;99875.78;;;16.61;100.00
31092;BME280;67728;53.122;12.776;2023-07-29T04:47:58;99880.63;;;16.69;100.00
31092;BME280;67728;53.122;12.776;2023-07-29T04:49:29;99877.94;;;16.70;100.00
31092;BME280;67728;53.122;12.776;2023-07-29T04:51:00;99869.38;;;16.67;100.00
31092;BME280;67728;53.122;12.776;2023-07-29T04:52:31;99876.91;;;16.73;100.00
31092;BME280;67728;53.122;12.776;2023-07-29T04:54:01;99874.03;;;16.78;100.00
31092;BME280;67728;53.122;12.776;2023-07-29T04:55:33;99876.91;;;16.73;100.00
31092;BME280;67728;53.122;12.776;2023-07-29T04:57:05;99878.84;;;16.69;100.00
31092;BME280;67728;53.122;12.776;2023-07-29T04:58:36;99880.44;;;16.72;100.00
31092;BME280;67728;53.122;12.776;2023-07-29T05:00:08;99881.03;;;16.77;100.00
31092;BME280;67728;53.122;12.776;2023-07-29T05:01:40;99884.53;;;16.78;100.00
31092;BME280;67728;53.122;12.776;2023-07-29T05:03:12;99877.34;;;16.81;100.00
31092;BME280;67728;53.122;12.776;2023-07-29T05:04:43;99885.09;;;16.83;100.00
31092;BME280;67728;53.122;12.776;2023-07-29T05:06:15;99884.25;;;16.82;100.00
31092;BME280;67728;53.122;12.776;2023-07-29T05:07:45;99874.63;;;16.83;100.00
31092;BME280;67728;53.122;12.776;2023-07-29T05:09:17;99872.88;;;16.83;100.00
31092;BME280;67728;53.122;12.776;2023-07-29T05:10:48;99870.16;;;16.85;100.00
31092;BME280;67728;53.122;12.776;2023-07-29T05:12:21;99868.38;;;16.85;100.00
31092;BME280;67728;53.122;12.776;2023-07-29T05:13:51;99870.84;;;16.88;100.00
31092;BME280;67728;53.122;12.776;2023-07-29T05:15:23;99868.97;;;16.90;100.00
31092;BME280;67728;53.122;12.776;2023-07-29T05:16:53;99868.13;;;16.90;100.00
31092;BME280;67728;53.122;12.776;2023-07-29T05:18:24;99873.19;;;16.93;100.00
31092;BME280;67728;53.122;12.776;2023-07-29T05:19:55;99867.63;;;16.99;100.00
31092;BME280;67728;53.122;12.776;2023-07-29T05:21:26;99867.34;;;17.03;100.00
31092;BME280;67728;53.122;12.776;2023-07-29T05:22:57;99868.56;;;17.13;100.00
31092;BME280;67728;53.122;12.776;2023-07-29T05:24:28;99866.38;;;17.21;100.00
31092;BME280;67728;53.122;12.776;2023-07-29T05:25:59;99865.06;;;17.28;100.00
31092;BME280;67728;53.122;12.776;2023-07-29T05:27:31;99860.34;;;17.35;100.00
31092;BME280;67728;53.122;12.776;2023-07-29T05:29:02;99857.09;;;17.46;100.00
31092;BME280;67728;53.122;12.776;2023-07-29T05:30:34;99856.94;;;17.49;100.00
31092;BME280;67728;53.122;12.776;2023-07-29T05:32:07;99851.50;;;17.52;100.00
31092;BME280;67728;53.122;12.776;2023-07-29T05:33:38;99855.78;;;17.54;100.00
31092;BME280;67728;53.122;12.776;2023-07-29T05:35:09;99857.38;;;17.57;100.00
31092;BME280;67728;53.122;12.776;2023-07-29T05:36:40;99857.00;;;17.63;100.00
31092;BME280;67728;53.122;12.776;2023-07-29T05:38:11;99861.88;;;17.69;100.00
31092;BME280;67728;53.122;12.776;2023-07-29T05:39:42;99862.06;;;17.66;100.00
31092;BME280;67728;53.122;12.776;2023-07-29T05:41:13;99860.00;;;17.71;100.00
31092;BME280;67728;53.122;12.776;2023-07-29T05:42:46;99861.03;;;17.68;100.00
31092;BME280;67728;53.122;12.776;2023-07-29T05:44:17;99860.97;;;17.70;100.00
31092;BME280;67728;53.122;12.776;2023-07-29T05:45:49;99864.22;;;17.73;100.00
31092;BME280;67728;53.122;12.776;2023-07-29T05:47:19;99867.72;;;17.74;100.00
31092;BME280;67728;53.122;12.776;2023-07-29T05:48:51;99869.47;;;17.73;100.00
31092;BME280;67728;53.122;12.776;2023-07-29T05:50:21;99864.16;;;17.75;100.00
31092;BME280;67728;53.122;12.776;2023-07-29T05:51:52;99864.16;;;17.75;100.00
31092;BME280;67728;53.122;12.776;2023-07-29T05:53:23;99862.13;;;17.80;100.00
31092;BME280;67728;53.122;12.776;2023-07-29T05:54:54;99858.38;;;17.84;100.00
31092;BME280;67728;53.122;12.776;2023-07-29T05:56:25;99859.22;;;17.84;100.00
31092;BME280;67728;53.122;12.776;2023-07-29T05:57:58;99860.72;;;17.88;100.00
31092;BME280;67728;53.122;12.776;2023-07-29T05:59:28;99864.09;;;17.90;100.00
31092;BME280;67728;53.122;12.776;2023-07-29T06:01:00;99861.47;;;17.90;100.00
31092;BME280;67728;53.122;12.776;2023-07-29T06:02:30;99859.88;;;17.88;100.00
31092;BME280;67728;53.122;12.776;2023-07-29T06:04:02;99862.22;;;17.92;100.00
31092;BME280;67728;53.122;12.776;2023-07-29T06:05:33;99848.84;;;17.97;100.00
31092;BME280;67728;53.122;12.776;2023-07-29T06:07:05;99864.41;;;18.00;100.00
31092;BME280;67728;53.122;12.776;2023-07-29T06:08:35;99863.28;;;18.04;100.00
31092;BME280;67728;53.122;12.776;2023-07-29T06:10:07;99860.31;;;18.10;100.00
31092;BME280;67728;53.122;12.776;2023-07-29T06:11:38;99866.28;;;18.12;100.00
31092;BME280;67728;53.122;12.776;2023-07-29T06:13:11;99864.25;;;18.17;100.00
31092;BME280;67728;53.122;12.776;2023-07-29T06:14:41;99867.44;;;18.22;100.00
31092;BME280;67728;53.122;12.776;2023-07-29T06:16:13;99859.75;;;18.19;100.00
31092;BME280;67728;53.122;12.776;2023-07-29T06:17:43;99866.69;;;18.20;100.00
31092;BME280;67728;53.122;12.776;2023-07-29T06:19:14;99858.81;;;18.20;100.00
31092;BME280;67728;53.122;12.776;2023-07-29T06:20:45;99867.34;;;18.24;100.00
31092;BME280;67728;53.122;12.776;2023-07-29T06:22:16;99862.66;;;18.29;100.00
31092;BME280;67728;53.122;12.776;2023-07-29T06:23:47;99868.41;;;18.35;100.00
31092;BME280;67728;53.122;12.776;2023-07-29T06:25:18;99864.63;;;18.39;100.00
31092;BME280;67728;53.122;12.776;2023-07-29T06:26:48;99873.00;;;18.46;100.00
31092;BME280;67728;53.122;12.776;2023-07-29T06:28:21;99866.56;;;18.52;100.00
31092;BME280;67728;53.122;12.776;2023-07-29T06:29:53;99870.78;;;18.54;100.00
31092;BME280;67728;53.122;12.776;2023-07-29T06:31:23;99883.25;;;18.65;100.00
31092;BME280;67728;53.122;12.776;2023-07-29T06:32:55;99876.59;;;18.73;100.00
31092;BME280;67728;53.122;12.776;2023-07-29T06:34:25;99870.84;;;18.81;100.00
31092;BME280;67728;53.122;12.776;2023-07-29T06:35:56;99872.88;;;18.90;100.00
31092;BME280;67728;53.122;12.776;2023-07-29T06:37:28;99864.06;;;18.91;100.00
31092;BME280;67728;53.122;12.776;2023-07-29T06:38:58;99866.31;;;18.97;100.00
31092;BME280;67728;53.122;12.776;2023-07-29T06:40:30;99865.25;;;19.14;100.00
31092;BME280;67728;53.122;12.776;2023-07-29T06:42:00;99871.78;;;19.21;100.00
31092;BME280;67728;53.122;12.776;2023-07-29T06:43:33;99870.03;;;19.34;100.00
31092;BME280;67728;53.122;12.776;2023-07-29T06:45:06;99875.75;;;19.54;100.00
31092;BME280;67728;53.122;12.776;2023-07-29T06:46:37;99871.03;;;19.59;100.00
31092;BME280;67728;53.122;12.776;2023-07-29T06:48:08;99875.31;;;19.60;99.65
31092;BME280;67728;53.122;12.776;2023-07-29T06:49:40;99881.88;;;19.67;98.91
31092;BME280;67728;53.122;12.776;2023-07-29T06:51:11;99882.63;;;19.69;98.72
31092;BME280;67728;53.122;12.776;2023-07-29T06:52:42;99878.75;;;19.75;97.88
31092;BME280;67728;53.122;12.776;2023-07-29T06:54:15;99877.25;;;19.71;98.39
31092;BME280;67728;53.122;12.776;2023-07-29T06:55:47;99874.53;;;19.73;97.99
31092;BME280;67728;53.122;12.776;2023-07-29T06:57:19;99871.78;;;19.74;98.44
31092;BME280;67728;53.122;12.776;2023-07-29T06:58:51;99853.34;;;19.74;97.58
31092;BME280;67728;53.122;12.776;2023-07-29T07:00:22;99860.34;;;19.88;97.26
31092;BME280;67728;53.122;12.776;2023-07-29T07:01:53;99853.16;;;19.90;96.86
31092;BME280;67728;53.122;12.776;2023-07-29T07:03:24;99843.59;;;19.89;97.37
31092;BME280;67728;53.122;12.776;2023-07-29T07:04:55;99843.94;;;19.97;96.83
31092;BME280;67728;53.122;12.776;2023-07-29T07:06:27;99841.38;;;19.95;96.21
31092;BME280;67728;53.122;12.776;2023-07-29T07:07:58;99841.28;;;19.97;95.29
31092;BME280;67728;53.122;12.776;2023-07-29T07:09:29;99837.63;;;19.99;95.02
31092;BME280;67728;53.122;12.776;2023-07-29T07:11:00;99837.50;;;20.01;96.17
31092;BME280;67728;53.122;12.776;2023-07-29T07:12:32;99828.88;;;19.99;95.25
31092;BME280;67728;53.122;12.776;2023-07-29T07:14:03;99839.41;;;19.99;94.41
31092;BME280;67728;53.122;12.776;2023-07-29T07:15:35;99836.03;;;19.97;94.69
31092;BME280;67728;53.122;12.776;2023-07-29T07:17:06;99844.66;;;20.11;94.02
31092;BME280;67728;53.122;12.776;2023-07-29T07:18:37;99841.88;;;20.27;93.39
31092;BME280;67728;53.122;12.776;2023-07-29T07:20:08;99835.44;;;20.44;93.39
31092;BME280;67728;53.122;12.776;2023-07-29T07:21:40;99836.25;;;20.57;92.28
31092;BME280;67728;53.122;12.776;2023-07-29T07:23:10;99840.66;;;20.69;92.91
31092;BME280;67728;53.122;12.776;2023-07-29T07:24:44;99842.13;;;20.60;92.11
31092;BME280;67728;53.122;12.776;2023-07-29T07:26:14;99838.13;;;20.67;92.65
31092;BME280;67728;53.122;12.776;2023-07-29T07:27:46;99845.94;;;20.56;94.21
31092;BME280;67728;53.122;12.776;2023-07-29T07:29:18;99842.88;;;20.50;93.41
31092;BME280;67728;53.122;12.776;2023-07-29T07:30:49;99843.81;;;20.61;93.09
31092;BME280;67728;53.122;12.776;2023-07-29T07:32:20;99851.19;;;20.69;93.65
31092;BME280;67728;53.122;12.776;2023-07-29T07:33:52;99849.53;;;20.55;93.17
31092;BME280;67728;53.122;12.776;2023-07-29T07:35:22;99850.47;;;20.67;92.83
31092;BME280;67728;53.122;12.776;2023-07-29T07:36:54;99843.50;;;20.66;92.74
31092;BME280;67728;53.122;12.776;2023-07-29T07:38:24;99842.22;;;20.71;93.69
31092;BME280;67728;53.122;12.776;2023-07-29T07:39:56;99837.25;;;20.79;93.11
31092;BME280;67728;53.122;12.776;2023-07-29T07:41:27;99842.28;;;20.82;93.28
31092;BME280;67728;53.122;12.776;2023-07-29T07:42:58;99834.47;;;20.94;92.65
31092;BME280;67728;53.122;12.776;2023-07-29T07:44:30;99838.97;;;21.04;92.17
31092;BME280;67728;53.122;12.776;2023-07-29T07:46:03;99839.69;;;21.06;90.94
31092;BME280;67728;53.122;12.776;2023-07-29T07:47:34;99838.00;;;21.18;92.23
31092;BME280;67728;53.122;12.776;2023-07-29T07:49:05;99843.19;;;21.19;92.31
31092;BME280;67728;53.122;12.776;2023-07-29T07:50:36;99848.44;;;21.19;89.95
31092;BME280;67728;53.122;12.776;2023-07-29T07:52:08;99844.50;;;21.25;90.64
31092;BME280;67728;53.122;12.776;2023-07-29T07:53:38;99842.25;;;21.08;91.60